createdAt,value
2017-09-27T00:00:04.708Z,0
2017-09-27T00:01:04.199Z,0
2017-09-27T00:02:04.914Z,0
2017-09-27T00:03:04.815Z,0
2017-09-27T00:04:04.180Z,0
2017-09-27T00:05:04.637Z,0
2017-09-27T00:06:04.485Z,0
2017-09-27T00:07:04.678Z,0
2017-09-27T00:08:04.570Z,0
2017-09-27T00:09:04.473Z,0
2017-09-27T00:10:04.302Z,0
2017-09-27T00:11:04.779Z,0
2017-09-27T00:12:04.554Z,0
2017-09-27T00:13:04.232Z,0
2017-09-27T00:14:04.132Z,0
2017-09-27T00:15:04.855Z,0
2017-09-27T00:16:03.962Z,0
2017-09-27T00:17:04.836Z,0
2017-09-27T00:18:04.112Z,0
2017-09-27T00:19:05.084Z,0
2017-09-27T00:20:03.791Z,0
2017-09-27T00:21:04.556Z,0
2017-09-27T00:22:04.405Z,0
2017-09-27T00:23:04.841Z,0
2017-09-27T00:24:05.017Z,0
2017-09-27T00:25:04.486Z,0
2017-09-27T00:26:03.956Z,0
2017-09-27T00:27:04.386Z,0
2017-09-27T00:28:04.792Z,0
2017-09-27T00:29:04.061Z,0
2017-09-27T00:30:04.670Z,0
2017-09-27T00:31:04.145Z,0
2017-09-27T00:32:04.884Z,0
2017-09-27T00:33:05.067Z,0
2017-09-27T00:34:04.645Z,0
2017-09-27T00:35:04.653Z,0
2017-09-27T00:36:04.331Z,0
2017-09-27T00:37:04.324Z,0
2017-09-27T00:38:04.637Z,0
2017-09-27T00:39:04.311Z,0
2017-09-27T00:40:04.304Z,0
2017-09-27T00:41:04.923Z,0
2017-09-27T00:42:04.398Z,0
2017-09-27T00:43:04.396Z,0
2017-09-27T00:44:04.701Z,0
2017-09-27T00:45:04.284Z,0
2017-09-27T00:46:04.286Z,0
2017-09-27T00:47:04.066Z,0
2017-09-27T00:48:04.397Z,0
2017-09-27T00:49:04.670Z,0
2017-09-27T00:50:03.956Z,0
2017-09-27T00:51:04.253Z,0
2017-09-27T00:52:03.730Z,0
2017-09-27T00:53:04.030Z,0
2017-09-27T00:54:04.232Z,0
2017-09-27T00:55:04.235Z,0
2017-09-27T00:56:03.916Z,0
2017-09-27T00:57:04.372Z,0
2017-09-27T00:58:04.219Z,0
2017-09-27T00:59:04.308Z,0
2017-09-27T01:00:03.897Z,0
2017-09-27T01:01:03.990Z,0
2017-09-27T01:02:04.345Z,0
2017-09-27T01:03:04.292Z,0
2017-09-27T01:04:04.188Z,0
2017-09-27T01:05:03.876Z,0
2017-09-27T01:06:04.490Z,0
2017-09-27T01:07:04.893Z,0
2017-09-27T01:08:04.316Z,0
2017-09-27T01:09:04.260Z,0
2017-09-27T01:10:04.154Z,0
2017-09-27T01:11:04.184Z,0
2017-09-27T01:12:04.342Z,0
2017-09-27T01:13:05.016Z,0
2017-09-27T01:14:04.754Z,0
2017-09-27T01:15:04.235Z,0
2017-09-27T01:16:04.760Z,0
2017-09-27T01:17:04.128Z,0
2017-09-27T01:18:03.802Z,0
2017-09-27T01:19:04.215Z,0
2017-09-27T01:20:03.582Z,0
2017-09-27T01:21:04.511Z,0
2017-09-27T01:22:04.406Z,0
2017-09-27T01:23:04.089Z,0
2017-09-27T01:24:04.084Z,0
2017-09-27T01:25:04.075Z,0
2017-09-27T01:26:03.890Z,0
2017-09-27T01:27:04.064Z,0
2017-09-27T01:28:03.752Z,0
2017-09-27T01:29:04.928Z,0
2017-09-27T01:30:04.056Z,0
2017-09-27T01:31:04.357Z,0
2017-09-27T01:32:04.456Z,0
2017-09-27T01:33:03.416Z,0
2017-09-27T01:34:04.594Z,0
2017-09-27T01:35:04.028Z,0
2017-09-27T01:36:03.706Z,0
2017-09-27T01:37:04.114Z,0
2017-09-27T01:38:04.009Z,0
2017-09-27T01:39:04.006Z,0
2017-09-27T01:40:03.531Z,0
2017-09-27T01:41:03.995Z,0
2017-09-27T01:42:03.994Z,0
2017-09-27T01:43:03.675Z,0
2017-09-27T01:44:03.986Z,0
2017-09-27T01:45:04.224Z,0
2017-09-27T01:46:04.596Z,0
2017-09-27T01:47:03.440Z,0
2017-09-27T01:48:03.970Z,0
2017-09-27T01:49:03.952Z,0
2017-09-27T01:50:04.423Z,0
2017-09-27T01:51:03.663Z,0
2017-09-27T01:52:03.729Z,0
2017-09-27T01:53:04.346Z,0
2017-09-27T01:54:03.619Z,0
2017-09-27T01:55:03.923Z,0
2017-09-27T01:56:04.333Z,0
2017-09-27T01:57:03.920Z,0
2017-09-27T01:58:03.958Z,0
2017-09-27T01:59:03.932Z,0
2017-09-27T02:00:03.377Z,0
2017-09-27T02:01:03.685Z,0
2017-09-27T02:02:03.582Z,0
2017-09-27T02:03:03.880Z,0
2017-09-27T02:04:03.668Z,0
2017-09-27T02:05:04.179Z,0
2017-09-27T02:06:03.707Z,0
2017-09-27T02:07:04.180Z,0
2017-09-27T02:08:03.548Z,0
2017-09-27T02:09:03.952Z,0
2017-09-27T02:10:03.547Z,0
2017-09-27T02:11:03.937Z,0
2017-09-27T02:12:03.834Z,0
2017-09-27T02:13:03.523Z,0
2017-09-27T02:14:03.618Z,0
2017-09-27T02:15:04.239Z,0
2017-09-27T02:16:03.603Z,0
2017-09-27T02:17:04.273Z,0
2017-09-27T02:18:03.180Z,0
2017-09-27T02:19:03.805Z,0
2017-09-27T02:20:03.944Z,0
2017-09-27T02:21:04.103Z,0
2017-09-27T02:22:04.193Z,0
2017-09-27T02:23:03.776Z,0
2017-09-27T02:24:03.777Z,0
2017-09-27T02:25:04.487Z,0
2017-09-27T02:26:03.551Z,0
2017-09-27T02:27:03.904Z,0
2017-09-27T02:28:03.445Z,0
2017-09-27T02:29:04.065Z,0
2017-09-27T02:30:04.057Z,0
2017-09-27T02:31:03.432Z,0
2017-09-27T02:32:04.061Z,0
2017-09-27T02:33:04.244Z,0
2017-09-27T02:34:04.347Z,0
2017-09-27T02:35:04.335Z,0
2017-09-27T02:36:04.123Z,0
2017-09-27T02:37:03.863Z,0
2017-09-27T02:38:03.699Z,0
2017-09-27T02:39:03.797Z,0
2017-09-27T02:40:04.011Z,0
2017-09-27T02:41:03.684Z,0
2017-09-27T02:42:04.096Z,0
2017-09-27T02:43:03.671Z,0
2017-09-27T02:44:04.230Z,0
2017-09-27T02:45:03.979Z,0
2017-09-27T02:46:03.447Z,0
2017-09-27T02:47:03.659Z,0
2017-09-27T02:48:03.655Z,0
2017-09-27T02:49:03.645Z,0
2017-09-27T02:50:03.965Z,0
2017-09-27T02:51:04.086Z,0
2017-09-27T02:52:03.636Z,0
2017-09-27T02:53:03.319Z,0
2017-09-27T02:54:03.097Z,0
2017-09-27T02:55:03.619Z,0
2017-09-27T02:56:03.711Z,0
2017-09-27T02:57:03.604Z,0
2017-09-27T02:58:02.974Z,0
2017-09-27T02:59:03.688Z,0
2017-09-27T03:00:03.284Z,0
2017-09-27T03:01:03.841Z,0
2017-09-27T03:02:03.985Z,0
2017-09-27T03:03:03.571Z,0
2017-09-27T03:04:03.664Z,0
2017-09-27T03:05:03.044Z,0
2017-09-27T03:06:03.561Z,0
2017-09-27T03:07:03.652Z,0
2017-09-27T03:08:03.856Z,0
2017-09-27T03:09:03.541Z,0
2017-09-27T03:10:03.884Z,0
2017-09-27T03:11:02.908Z,0
2017-09-27T03:12:03.315Z,0
2017-09-27T03:13:02.898Z,0
2017-09-27T03:14:03.826Z,0
2017-09-27T03:15:03.657Z,0
2017-09-27T03:16:04.163Z,0
2017-09-27T03:17:03.186Z,0
2017-09-27T03:18:03.283Z,0
2017-09-27T03:19:03.277Z,0
2017-09-27T03:20:03.580Z,0
2017-09-27T03:21:03.791Z,0
2017-09-27T03:22:03.470Z,0
2017-09-27T03:23:02.845Z,0
2017-09-27T03:24:03.301Z,0
2017-09-27T03:25:03.869Z,0
2017-09-27T03:26:03.138Z,0
2017-09-27T03:27:04.074Z,0
2017-09-27T03:28:03.436Z,0
2017-09-27T03:29:03.123Z,0
2017-09-27T03:30:03.630Z,0
2017-09-27T03:31:04.158Z,0
2017-09-27T03:32:02.798Z,0
2017-09-27T03:33:03.412Z,0
2017-09-27T03:34:03.720Z,0
2017-09-27T03:35:03.197Z,0
2017-09-27T03:36:03.807Z,0
2017-09-27T03:37:04.012Z,0
2017-09-27T03:38:03.699Z,0
2017-09-27T03:39:03.695Z,0
2017-09-27T03:40:03.694Z,0
2017-09-27T03:41:02.753Z,0
2017-09-27T03:42:03.257Z,0
2017-09-27T03:43:03.154Z,0
2017-09-27T03:44:02.737Z,0
2017-09-27T03:45:03.347Z,0
2017-09-27T03:46:03.653Z,0
2017-09-27T03:47:03.027Z,0
2017-09-27T03:48:03.664Z,0
2017-09-27T03:49:03.018Z,0
2017-09-27T03:50:03.326Z,0
2017-09-27T03:51:03.421Z,0
2017-09-27T03:52:04.072Z,0
2017-09-27T03:53:03.309Z,0
2017-09-27T03:54:03.304Z,0
2017-09-27T03:55:03.398Z,0
2017-09-27T03:56:03.298Z,0
2017-09-27T03:57:03.920Z,0
2017-09-27T03:58:02.971Z,0
2017-09-27T03:59:03.066Z,0
2017-09-27T04:00:03.292Z,0
2017-09-27T04:01:03.585Z,0
2017-09-27T04:02:02.791Z,0
2017-09-27T04:03:03.357Z,0
2017-09-27T04:04:02.936Z,0
2017-09-27T04:05:03.245Z,0
2017-09-27T04:06:02.721Z,0
2017-09-27T04:07:03.795Z,0
2017-09-27T04:08:03.239Z,0
2017-09-27T04:09:02.917Z,0
2017-09-27T04:10:02.910Z,0
2017-09-27T04:11:04.036Z,0
2017-09-27T04:12:02.907Z,0
2017-09-27T04:13:03.665Z,0
2017-09-27T04:14:03.612Z,0
2017-09-27T04:15:03.198Z,0
2017-09-27T04:16:03.076Z,0
2017-09-27T04:17:02.868Z,0
2017-09-27T04:18:03.490Z,0
2017-09-27T04:19:03.272Z,0
2017-09-27T04:20:02.861Z,0
2017-09-27T04:21:03.265Z,0
2017-09-27T04:22:02.540Z,0
2017-09-27T04:23:03.045Z,0
2017-09-27T04:24:03.259Z,0
2017-09-27T04:25:03.145Z,0
2017-09-27T04:26:02.976Z,0
2017-09-27T04:27:03.538Z,0
2017-09-27T04:28:02.915Z,0
2017-09-27T04:29:03.531Z,0
2017-09-27T04:30:03.219Z,0
2017-09-27T04:31:03.265Z,0
2017-09-27T04:32:02.896Z,0
2017-09-27T04:33:03.408Z,0
2017-09-27T04:34:03.405Z,0
2017-09-27T04:35:02.873Z,0
2017-09-27T04:36:02.461Z,0
2017-09-27T04:37:03.176Z,0
2017-09-27T04:38:03.224Z,0
2017-09-27T04:39:03.383Z,0
2017-09-27T04:40:03.064Z,0
2017-09-27T04:41:02.848Z,0
2017-09-27T04:42:03.057Z,0
2017-09-27T04:43:02.935Z,0
2017-09-27T04:44:03.662Z,0
2017-09-27T04:45:03.352Z,0
2017-09-27T04:46:02.406Z,0
2017-09-27T04:47:02.813Z,0
2017-09-27T04:48:03.118Z,0
2017-09-27T04:49:02.545Z,0
2017-09-27T04:50:03.008Z,0
2017-09-27T04:51:02.692Z,0
2017-09-27T04:52:03.511Z,0
2017-09-27T04:53:02.995Z,0
2017-09-27T04:54:02.777Z,0
2017-09-27T04:55:02.821Z,0
2017-09-27T04:56:02.978Z,0
2017-09-27T04:57:02.764Z,0
2017-09-27T04:58:03.433Z,0
2017-09-27T04:59:03.375Z,0
2017-09-27T05:00:02.958Z,0
2017-09-27T05:01:02.947Z,0
2017-09-27T05:02:03.260Z,0
2017-09-27T05:03:02.733Z,0
2017-09-27T05:04:02.941Z,0
2017-09-27T05:05:03.080Z,0
2017-09-27T05:06:02.919Z,0
2017-09-27T05:07:03.434Z,0
2017-09-27T05:08:03.063Z,0
2017-09-27T05:09:02.909Z,0
2017-09-27T05:10:02.793Z,0
2017-09-27T05:11:02.902Z,0
2017-09-27T05:12:02.893Z,0
2017-09-27T05:13:03.548Z,0
2017-09-27T05:14:03.507Z,0
2017-09-27T05:15:03.027Z,0
2017-09-27T05:16:02.559Z,0
2017-09-27T05:17:02.871Z,0
2017-09-27T05:18:03.470Z,0
2017-09-27T05:19:02.330Z,0
2017-09-27T05:20:02.951Z,0
2017-09-27T05:21:03.460Z,0
2017-09-27T05:22:03.457Z,0
2017-09-27T05:23:03.035Z,0
2017-09-27T05:24:02.209Z,0
2017-09-27T05:25:03.234Z,0
2017-09-27T05:26:02.301Z,0
2017-09-27T05:27:02.190Z,0
2017-09-27T05:28:03.119Z,0
2017-09-27T05:29:02.800Z,0
2017-09-27T05:30:02.592Z,0
2017-09-27T05:31:03.001Z,0
2017-09-27T05:32:02.791Z,0
2017-09-27T05:33:02.470Z,0
2017-09-27T05:34:03.404Z,0
2017-09-27T05:35:02.156Z,0
2017-09-27T05:36:03.394Z,0
2017-09-27T05:37:02.912Z,0
2017-09-27T05:38:02.445Z,0
2017-09-27T05:39:02.447Z,0
2017-09-27T05:40:02.849Z,0
2017-09-27T05:41:02.576Z,0
2017-09-27T05:42:02.622Z,0
2017-09-27T05:43:02.114Z,0
2017-09-27T05:44:02.730Z,0
2017-09-27T05:45:02.412Z,0
2017-09-27T05:46:02.862Z,0
2017-09-27T05:47:02.186Z,0
2017-09-27T05:48:02.701Z,0
2017-09-27T05:49:02.487Z,0
2017-09-27T05:50:02.379Z,0
2017-09-27T05:51:02.688Z,0
2017-09-27T05:52:02.521Z,0
2017-09-27T05:53:02.367Z,0
2017-09-27T05:54:03.087Z,0
2017-09-27T05:55:02.672Z,0
2017-09-27T05:56:02.768Z,0
2017-09-27T05:57:02.132Z,0
2017-09-27T05:58:02.644Z,0
2017-09-27T05:59:02.432Z,0
2017-09-27T06:00:02.324Z,0
2017-09-27T06:01:02.008Z,0
2017-09-27T06:02:03.032Z,0
2017-09-27T06:03:02.440Z,0
2017-09-27T06:04:02.616Z,0
2017-09-27T06:05:02.393Z,0
2017-09-27T06:06:02.914Z,0
2017-09-27T06:07:02.379Z,0
2017-09-27T06:08:03.000Z,0
2017-09-27T06:09:02.579Z,0
2017-09-27T06:10:01.959Z,0
2017-09-27T06:11:02.262Z,0
2017-09-27T06:12:02.400Z,0
2017-09-27T06:13:02.908Z,0
2017-09-27T06:14:02.246Z,0
2017-09-27T06:15:02.550Z,0
2017-09-27T06:16:02.240Z,0
2017-09-27T06:17:02.537Z,0
2017-09-27T06:18:02.223Z,0
2017-09-27T06:19:02.223Z,0
2017-09-27T06:20:02.521Z,0
2017-09-27T06:21:02.205Z,0
2017-09-27T06:22:02.619Z,0
2017-09-27T06:23:02.296Z,0
2017-09-27T06:24:02.606Z,0
2017-09-27T06:25:02.187Z,0
2017-09-27T06:26:02.186Z,0
2017-09-27T06:27:02.893Z,0
2017-09-27T06:28:02.588Z,0
2017-09-27T06:29:02.887Z,0
2017-09-27T06:30:02.783Z,0
2017-09-27T06:31:02.777Z,0
2017-09-27T06:32:02.151Z,0
2017-09-27T06:33:02.247Z,0
2017-09-27T06:34:03.239Z,0
2017-09-27T06:35:01.926Z,0
2017-09-27T06:36:02.753Z,0
2017-09-27T06:37:02.848Z,0
2017-09-27T06:38:02.535Z,0
2017-09-27T06:39:02.424Z,0
2017-09-27T06:40:02.422Z,0
2017-09-27T06:41:02.103Z,0
2017-09-27T06:42:02.410Z,0
2017-09-27T06:43:02.398Z,0
2017-09-27T06:44:02.498Z,0
2017-09-27T06:45:02.184Z,0
2017-09-27T06:46:02.378Z,0
2017-09-27T06:47:02.382Z,0
2017-09-27T06:48:02.484Z,0
2017-09-27T06:49:02.371Z,0
2017-09-27T06:50:02.057Z,0
2017-09-27T06:51:02.363Z,0
2017-09-27T06:52:02.155Z,0
2017-09-27T06:53:02.042Z,0
2017-09-27T06:54:02.446Z,0
2017-09-27T06:55:02.029Z,0
2017-09-27T06:56:02.364Z,0
2017-09-27T06:57:02.800Z,0
2017-09-27T06:58:02.324Z,5
2017-09-27T06:59:01.699Z,5
2017-09-27T07:00:02.315Z,5
2017-09-27T07:01:02.511Z,5
2017-09-27T07:02:01.835Z,5
2017-09-27T07:03:02.308Z,5
2017-09-27T07:04:01.986Z,5
2017-09-27T07:05:02.286Z,5
2017-09-27T07:06:01.970Z,5
2017-09-27T07:07:02.538Z,5
2017-09-27T07:08:02.377Z,5
2017-09-27T07:09:01.958Z,5
2017-09-27T07:10:02.262Z,5
2017-09-27T07:11:02.563Z,5
2017-09-27T07:12:02.463Z,5
2017-09-27T07:13:02.248Z,5
2017-09-27T07:14:01.944Z,5
2017-09-27T07:15:02.855Z,5
2017-09-27T07:16:02.241Z,5
2017-09-27T07:17:02.216Z,5
2017-09-27T07:18:01.906Z,10
2017-09-27T07:19:01.595Z,10
2017-09-27T07:20:02.520Z,10
2017-09-27T07:21:02.303Z,10
2017-09-27T07:22:02.714Z,10
2017-09-27T07:23:02.502Z,10
2017-09-27T07:24:02.190Z,10
2017-09-27T07:25:02.494Z,10
2017-09-27T07:26:02.173Z,10
2017-09-27T07:27:01.960Z,10
2017-09-27T07:28:02.271Z,10
2017-09-27T07:29:02.568Z,10
2017-09-27T07:30:02.163Z,10
2017-09-27T07:31:01.843Z,10
2017-09-27T07:32:02.566Z,10
2017-09-27T07:33:02.575Z,10
2017-09-27T07:34:02.443Z,10
2017-09-27T07:35:01.822Z,10
2017-09-27T07:36:01.810Z,10
2017-09-27T07:37:02.220Z,10
2017-09-27T07:38:02.213Z,10
2017-09-27T07:39:01.810Z,10
2017-09-27T07:40:02.202Z,10
2017-09-27T07:41:02.096Z,10
2017-09-27T07:42:01.894Z,10
2017-09-27T07:43:02.852Z,10
2017-09-27T07:44:02.708Z,10
2017-09-27T07:45:01.772Z,10
2017-09-27T07:46:02.171Z,10
2017-09-27T07:47:01.859Z,10
2017-09-27T07:48:01.749Z,10
2017-09-27T07:49:02.062Z,10
2017-09-27T07:50:01.741Z,10
2017-09-27T07:51:02.355Z,10
2017-09-27T07:52:08.101Z,10
2017-09-27T07:53:01.826Z,10
2017-09-27T07:54:02.040Z,10
2017-09-27T07:55:02.442Z,10
2017-09-27T07:56:02.022Z,10
2017-09-27T07:57:02.267Z,10
2017-09-27T07:58:02.515Z,10
2017-09-27T07:59:01.695Z,10
2017-09-27T08:00:01.790Z,10
2017-09-27T08:01:01.682Z,10
2017-09-27T08:02:02.089Z,10
2017-09-27T08:03:02.201Z,10
2017-09-27T08:04:01.977Z,10
2017-09-27T08:05:02.386Z,10
2017-09-27T08:06:01.654Z,10
2017-09-27T08:07:01.804Z,15
2017-09-27T08:08:02.464Z,15
2017-09-27T08:09:02.265Z,15
2017-09-27T08:10:02.044Z,15
2017-09-27T08:11:02.258Z,15
2017-09-27T08:12:01.780Z,15
2017-09-27T08:13:01.934Z,15
2017-09-27T08:14:02.027Z,15
2017-09-27T08:15:01.717Z,15
2017-09-27T08:16:01.295Z,15
2017-09-27T08:17:02.019Z,20
2017-09-27T08:18:02.007Z,20
2017-09-27T08:19:01.593Z,20
2017-09-27T08:20:02.305Z,20
2017-09-27T08:21:01.583Z,20
2017-09-27T08:22:01.883Z,20
2017-09-27T08:23:01.413Z,15
2017-09-27T08:24:01.569Z,15
2017-09-27T08:25:02.280Z,15
2017-09-27T08:26:01.556Z,15
2017-09-27T08:27:01.961Z,15
2017-09-27T08:28:01.338Z,15
2017-09-27T08:29:02.570Z,15
2017-09-27T08:30:02.568Z,15
2017-09-27T08:31:01.527Z,15
2017-09-27T08:32:01.728Z,15
2017-09-27T08:33:01.620Z,15
2017-09-27T08:34:02.445Z,15
2017-09-27T08:35:01.820Z,15
2017-09-27T08:36:01.821Z,15
2017-09-27T08:37:02.224Z,15
2017-09-27T08:38:02.424Z,15
2017-09-27T08:39:01.800Z,15
2017-09-27T08:40:02.200Z,15
2017-09-27T08:41:01.790Z,15
2017-09-27T08:42:02.421Z,20
2017-09-27T08:43:01.989Z,20
2017-09-27T08:44:01.978Z,20
2017-09-27T08:45:01.771Z,20
2017-09-27T08:46:01.763Z,20
2017-09-27T08:47:02.376Z,20
2017-09-27T08:48:01.858Z,20
2017-09-27T08:49:01.849Z,20
2017-09-27T08:50:02.054Z,20
2017-09-27T08:51:01.836Z,20
2017-09-27T08:52:01.520Z,20
2017-09-27T08:53:01.725Z,25
2017-09-27T08:54:01.415Z,20
2017-09-27T08:55:01.411Z,20
2017-09-27T08:56:01.811Z,25
2017-09-27T08:57:01.808Z,25
2017-09-27T08:58:02.116Z,25
2017-09-27T08:59:01.799Z,25
2017-09-27T09:00:01.694Z,20
2017-09-27T09:01:01.690Z,20
2017-09-27T09:02:02.106Z,20
2017-09-27T09:03:01.678Z,20
2017-09-27T09:04:01.464Z,20
2017-09-27T09:05:02.087Z,20
2017-09-27T09:06:01.981Z,20
2017-09-27T09:07:01.760Z,20
2017-09-27T09:08:01.800Z,20
2017-09-27T09:09:01.437Z,20
2017-09-27T09:10:01.642Z,20
2017-09-27T09:11:01.643Z,20
2017-09-27T09:12:01.424Z,20
2017-09-27T09:13:01.631Z,20
2017-09-27T09:14:02.537Z,20
2017-09-27T09:15:01.619Z,20
2017-09-27T09:16:01.300Z,20
2017-09-27T09:17:01.611Z,20
2017-09-27T09:18:01.602Z,20
2017-09-27T09:19:01.753Z,15
2017-09-27T09:20:01.386Z,20
2017-09-27T09:21:01.582Z,20
2017-09-27T09:22:00.964Z,20
2017-09-27T09:23:01.064Z,20
2017-09-27T09:24:01.724Z,20
2017-09-27T09:25:01.048Z,20
2017-09-27T09:26:01.252Z,20
2017-09-27T09:27:01.555Z,15
2017-09-27T09:28:01.246Z,15
2017-09-27T09:29:01.863Z,15
2017-09-27T09:30:01.335Z,20
2017-09-27T09:31:01.435Z,15
2017-09-27T09:32:01.326Z,15
2017-09-27T09:33:01.524Z,15
2017-09-27T09:34:01.533Z,15
2017-09-27T09:35:01.050Z,15
2017-09-27T09:36:01.616Z,15
2017-09-27T09:37:00.889Z,15
2017-09-27T09:38:01.601Z,15
2017-09-27T09:39:01.501Z,15
2017-09-27T09:40:01.282Z,15
2017-09-27T09:41:01.592Z,15
2017-09-27T09:42:01.176Z,20
2017-09-27T09:43:01.584Z,25
2017-09-27T09:44:01.475Z,25
2017-09-27T09:45:01.482Z,25
2017-09-27T09:46:02.132Z,25
2017-09-27T09:47:01.779Z,25
2017-09-27T09:48:02.274Z,20
2017-09-27T09:49:01.763Z,20
2017-09-27T09:50:00.862Z,20
2017-09-27T09:51:01.331Z,20
2017-09-27T09:52:01.126Z,15
2017-09-27T09:53:01.120Z,20
2017-09-27T09:54:01.748Z,20
2017-09-27T09:55:01.112Z,20
2017-09-27T09:56:01.307Z,20
2017-09-27T09:57:01.410Z,20
2017-09-27T09:58:01.507Z,20
2017-09-27T09:59:01.095Z,20
2017-09-27T10:00:01.085Z,20
2017-09-27T10:01:01.697Z,20
2017-09-27T10:02:01.419Z,20
2017-09-27T10:03:01.795Z,20
2017-09-27T10:04:01.378Z,20
2017-09-27T10:05:01.371Z,20
2017-09-27T10:06:01.369Z,20
2017-09-27T10:07:01.467Z,20
2017-09-27T10:08:01.054Z,20
2017-09-27T10:09:01.557Z,20
2017-09-27T10:10:00.729Z,20
2017-09-27T10:11:00.723Z,20
2017-09-27T10:12:01.648Z,20
2017-09-27T10:13:01.338Z,20
2017-09-27T10:14:01.022Z,20
2017-09-27T10:15:00.907Z,20
2017-09-27T10:16:02.040Z,20
2017-09-27T10:17:01.006Z,20
2017-09-27T10:18:01.001Z,20
2017-09-27T10:19:00.995Z,20
2017-09-27T10:20:01.713Z,25
2017-09-27T10:21:01.444Z,25
2017-09-27T10:22:00.980Z,20
2017-09-27T10:23:00.980Z,25
2017-09-27T10:24:00.973Z,25
2017-09-27T10:25:00.666Z,20
2017-09-27T10:26:01.115Z,20
2017-09-27T10:27:01.469Z,25
2017-09-27T10:28:00.955Z,20
2017-09-27T10:29:00.951Z,25
2017-09-27T10:30:01.256Z,25
2017-09-27T10:31:01.041Z,25
2017-09-27T10:32:01.751Z,25
2017-09-27T10:33:00.621Z,25
2017-09-27T10:34:00.619Z,25
2017-09-27T10:35:00.620Z,25
2017-09-27T10:36:00.607Z,25
2017-09-27T10:37:01.325Z,20
2017-09-27T10:38:01.527Z,15
2017-09-27T10:39:00.901Z,15
2017-09-27T10:40:01.311Z,15
2017-09-27T10:41:01.214Z,15
2017-09-27T10:42:01.503Z,15
2017-09-27T10:43:01.502Z,15
2017-09-27T10:44:01.499Z,15
2017-09-27T10:45:01.899Z,15
2017-09-27T10:46:00.664Z,15
2017-09-27T10:47:00.866Z,15
2017-09-27T10:48:01.059Z,25
2017-09-27T10:49:01.167Z,25
2017-09-27T10:50:01.883Z,25
2017-09-27T10:51:00.538Z,25
2017-09-27T10:52:01.904Z,25
2017-09-27T10:53:01.559Z,25
2017-09-27T10:54:01.459Z,25
2017-09-27T10:55:01.153Z,25
2017-09-27T10:56:01.171Z,15
2017-09-27T10:57:01.229Z,15
2017-09-27T10:58:01.775Z,15
2017-09-27T10:59:01.045Z,15
2017-09-27T11:00:01.154Z,15
2017-09-27T11:01:00.591Z,15
2017-09-27T11:02:01.538Z,15
2017-09-27T11:03:01.430Z,15
2017-09-27T11:04:01.260Z,15
2017-09-27T11:05:01.400Z,15
2017-09-27T11:06:01.106Z,15
2017-09-27T11:07:01.130Z,15
2017-09-27T11:08:01.731Z,20
2017-09-27T11:09:01.401Z,20
2017-09-27T11:10:01.233Z,15
2017-09-27T11:11:01.396Z,20
2017-09-27T11:12:01.089Z,20
2017-09-27T11:13:01.425Z,20
2017-09-27T11:14:00.940Z,20
2017-09-27T11:15:00.428Z,20
2017-09-27T11:16:01.044Z,25
2017-09-27T11:17:01.342Z,25
2017-09-27T11:18:00.725Z,25
2017-09-27T11:19:01.344Z,25
2017-09-27T11:20:00.863Z,25
2017-09-27T11:21:00.712Z,25
2017-09-27T11:22:01.322Z,20
2017-09-27T11:23:01.419Z,20
2017-09-27T11:24:01.310Z,25
2017-09-27T11:25:01.409Z,25
2017-09-27T11:26:00.996Z,25
2017-09-27T11:27:00.681Z,25
2017-09-27T11:28:00.676Z,25
2017-09-27T11:29:01.702Z,25
2017-09-27T11:30:01.078Z,25
2017-09-27T11:31:00.666Z,30
2017-09-27T11:32:01.278Z,30
2017-09-27T11:33:00.654Z,30
2017-09-27T11:34:01.060Z,30
2017-09-27T11:35:00.740Z,35
2017-09-27T11:36:01.400Z,35
2017-09-27T11:37:00.949Z,30
2017-09-27T11:38:00.636Z,30
2017-09-27T11:39:00.959Z,30
2017-09-27T11:40:00.726Z,30
2017-09-27T11:41:00.768Z,25
2017-09-27T11:42:00.618Z,25
2017-09-27T11:43:00.611Z,25
2017-09-27T11:44:00.297Z,25
2017-09-27T11:45:01.321Z,25
2017-09-27T11:46:01.423Z,25
2017-09-27T11:47:00.283Z,25
2017-09-27T11:48:00.584Z,25
2017-09-27T11:49:01.200Z,25
2017-09-27T11:50:01.205Z,25
2017-09-27T11:51:00.884Z,25
2017-09-27T11:52:01.079Z,25
2017-09-27T11:53:00.883Z,20
2017-09-27T11:54:00.870Z,25
2017-09-27T11:55:00.553Z,25
2017-09-27T11:56:00.651Z,25
2017-09-27T11:57:00.949Z,25
2017-09-27T11:58:01.299Z,25
2017-09-27T11:59:00.946Z,25
2017-09-27T12:00:01.151Z,25
2017-09-27T12:01:00.932Z,25
2017-09-27T12:02:00.671Z,25
2017-09-27T12:03:00.613Z,25
2017-09-27T12:04:01.228Z,25
2017-09-27T12:05:00.819Z,25
2017-09-27T12:06:00.506Z,25
2017-09-27T12:07:00.600Z,25
2017-09-27T12:08:00.808Z,30
2017-09-27T12:09:00.595Z,30
2017-09-27T12:10:00.588Z,25
2017-09-27T12:11:00.788Z,25
2017-09-27T12:12:00.936Z,25
2017-09-27T12:13:01.091Z,25
2017-09-27T12:14:00.573Z,25
2017-09-27T12:15:00.252Z,25
2017-09-27T12:16:00.769Z,25
2017-09-27T12:17:00.963Z,25
2017-09-27T12:18:00.760Z,25
2017-09-27T12:19:01.064Z,25
2017-09-27T12:20:00.444Z,25
2017-09-27T12:21:00.124Z,25
2017-09-27T12:22:01.155Z,25
2017-09-27T12:23:00.882Z,25
2017-09-27T12:24:00.842Z,25
2017-09-27T12:25:01.141Z,25
2017-09-27T12:26:00.823Z,25
2017-09-27T12:27:00.816Z,25
2017-09-27T12:28:01.030Z,25
2017-09-27T12:29:00.811Z,25
2017-09-27T12:30:01.112Z,25
2017-09-27T12:31:00.698Z,25
2017-09-27T12:32:00.492Z,25
2017-09-27T12:33:00.070Z,25
2017-09-27T12:34:00.533Z,25
2017-09-27T12:35:00.063Z,25
2017-09-27T12:36:00.567Z,25
2017-09-27T12:37:00.362Z,25
2017-09-27T12:38:00.666Z,25
2017-09-27T12:39:00.664Z,25
2017-09-27T12:40:00.450Z,25
2017-09-27T12:41:00.753Z,25
2017-09-27T12:42:00.472Z,25
2017-09-27T12:43:00.651Z,25
2017-09-27T12:44:00.331Z,25
2017-09-27T12:45:00.787Z,25
2017-09-27T12:46:00.631Z,25
2017-09-27T12:47:00.108Z,25
2017-09-27T12:48:00.923Z,25
2017-09-27T12:49:00.928Z,25
2017-09-27T12:50:00.454Z,25
2017-09-27T12:51:00.919Z,25
2017-09-27T12:52:00.914Z,25
2017-09-27T12:53:00.295Z,25
2017-09-27T12:54:00.602Z,25
2017-09-27T12:55:00.291Z,25
2017-09-27T12:56:00.070Z,25
2017-09-27T12:57:00.276Z,25
2017-09-27T12:58:00.272Z,25
2017-09-27T12:59:00.362Z,25
2017-09-27T13:00:00.571Z,25
2017-09-27T13:01:00.669Z,25
2017-09-27T13:02:00.250Z,25
2017-09-27T13:03:00.247Z,25
2017-09-27T13:04:01.066Z,25
2017-09-27T13:04:59.941Z,25
2017-09-27T13:06:00.336Z,25
2017-09-27T13:07:00.328Z,25
2017-09-27T13:08:00.842Z,25
2017-09-27T13:09:00.320Z,25
2017-09-27T13:10:00.216Z,25
2017-09-27T13:11:00.005Z,25
2017-09-27T13:12:00.211Z,25
2017-09-27T13:13:00.307Z,25
2017-09-27T13:13:59.990Z,25
2017-09-27T13:15:00.816Z,25
2017-09-27T13:16:00.602Z,25
2017-09-27T13:17:01.116Z,25
2017-09-27T13:18:00.640Z,25
2017-09-27T13:19:00.588Z,25
2017-09-27T13:20:00.175Z,25
2017-09-27T13:20:59.957Z,25
2017-09-27T13:22:00.785Z,25
2017-09-27T13:23:00.575Z,25
2017-09-27T13:24:00.777Z,25
2017-09-27T13:25:00.248Z,25
2017-09-27T13:26:00.457Z,25
2017-09-27T13:27:00.140Z,25
2017-09-27T13:28:00.547Z,25
2017-09-27T13:29:00.235Z,25
2017-09-27T13:30:00.129Z,25
2017-09-27T13:31:00.434Z,25
2017-09-27T13:32:00.842Z,25
2017-09-27T13:33:00.433Z,25
2017-09-27T13:34:00.313Z,25
2017-09-27T13:35:00.211Z,25
2017-09-27T13:36:00.415Z,25
2017-09-27T13:36:59.788Z,25
2017-09-27T13:38:00.092Z,25
2017-09-27T13:39:00.308Z,25
2017-09-27T13:39:59.875Z,25
2017-09-27T13:41:00.489Z,25
2017-09-27T13:42:00.078Z,25
2017-09-27T13:42:59.764Z,25
2017-09-27T13:44:00.378Z,25
2017-09-27T13:45:01.004Z,25
2017-09-27T13:46:00.471Z,25
2017-09-27T13:47:00.783Z,25
2017-09-27T13:48:00.362Z,25
2017-09-27T13:49:00.608Z,25
2017-09-27T13:50:00.449Z,25
2017-09-27T13:50:59.832Z,25
2017-09-27T13:51:59.725Z,25
2017-09-27T13:53:00.343Z,25
2017-09-27T13:54:00.536Z,25
2017-09-27T13:55:01.054Z,25
2017-09-27T13:56:00.017Z,25
2017-09-27T13:57:00.324Z,25
2017-09-27T13:58:00.321Z,25
2017-09-27T13:59:00.420Z,25
2017-09-27T13:59:59.999Z,25
2017-09-27T14:01:00.613Z,25
2017-09-27T14:02:00.625Z,30
2017-09-27T14:03:00.091Z,30
2017-09-27T14:04:00.713Z,30
2017-09-27T14:05:00.598Z,25
2017-09-27T14:06:00.906Z,25
2017-09-27T14:06:59.970Z,25
2017-09-27T14:08:00.594Z,25
2017-09-27T14:09:00.595Z,25
2017-09-27T14:10:00.058Z,30
2017-09-27T14:10:59.954Z,30
2017-09-27T14:12:00.578Z,30
2017-09-27T14:13:00.463Z,30
2017-09-27T14:14:00.356Z,30
2017-09-27T14:15:00.276Z,30
2017-09-27T14:16:00.243Z,35
2017-09-27T14:17:00.237Z,35
2017-09-27T14:17:59.926Z,40
2017-09-27T14:19:00.531Z,40
2017-09-27T14:20:00.381Z,45
2017-09-27T14:21:00.228Z,45
2017-09-27T14:22:00.217Z,50
2017-09-27T14:23:00.625Z,50
2017-09-27T14:24:00.210Z,50
2017-09-27T14:25:00.719Z,50
2017-09-27T14:25:59.996Z,50
2017-09-27T14:27:00.209Z,55
2017-09-27T14:27:59.574Z,55
2017-09-27T14:29:00.909Z,55
2017-09-27T14:29:59.975Z,55
2017-09-27T14:30:59.973Z,55